Aviation Digital Data Service (ADDS)

Output produced by TAFs form (1118 UTC 24 April 2017)
found at http://www.aviationweather.gov/adds/tafs/
 
METAR text: RJOY 241000Z 32005KT 9999 FEW035 SCT060 BKN100 19/10 Q1023
Conditions at: RJOY (YAO (CIV/JGSDF) , JP) observed 1000 UTC 24 April 2017
Temperature: 19.0°C (66°F)
Dewpoint: 10.0°C (50°F) [RH = 56%]
Pressure (altimeter): 30.21 inches Hg (1023.0 mb)
Winds: from the NW (320 degrees) at 6 MPH (5 knots; 2.6 m/s)
Visibility: 6 or more miles (10+ km)
Ceiling: 10000 feet AGL
Clouds: few clouds at 3500 feet AGL
scattered clouds at 6000 feet AGL
broken clouds at 10000 feet AGL
Weather: no significant weather observed at this time